Terminal Aerodrome Forecast
Issued by NWS Charleston, WV

Current Version | Previous Version | Graphics & Text | Print | Product List | Glossary On
Versions: 1 2 3 4 5 6 7 8 9 10 11 12 13 14 15 16 17 18 19 20 21 22 23 24 25 26 27 28
000
FTUS41 KRLX 051743
TAFCRW
TAF
KCRW 051743Z 0518/0618 VRB03KT P6SM BKN035
     FM052200 00000KT P6SM BKN200
     FM061000 13007KT P6SM -RA OVC030
     FM061200 13008KT 3SM -RA OVC015
     FM061300 13008KT 2SM -RA OVC015=

USA.gov is the U.S. government's official web portal to all federal, state and local government web resources and services.